Centaurus — CUFE6 — position and weather

sailwx.info

Track history (hours):
 
Tides and Currents Weather Stations Pressure Air Temp Water Temp Dewpoint Dewpoint Depression Visibility Wind Speed Wind Dir Waves Ship Positions

Centaurus

Last reported at 2017-Nov-23 02:29 UTC. Time now 2017-Nov-23 11:25 UTC.
Position N 36°55' W 008°09'.

; draft 3.5 m.

Type: Fishing. MMSI: 263410940.

Date/timePositionNaut miles runAvg speedWind from/ knotsBaromVisibWave heightAir tempDewpointWater temp
2017-Nov-23 02:29N 36°55' W 008°09'2 5.0
2017-Nov-23 02:00N 36°56' W 008°06'1 1.5
2017-Nov-23 01:30N 36°55' W 008°07'2 4.0
2017-Nov-23 01:01N 36°55' W 008°09'2 4.1
2017-Nov-23 00:31N 36°57' W 008°11'2 4.0
2017-Nov-23 00:00N 36°58' W 008°13'3 5.4
2017-Nov-22 23:31N 36°58' W 008°16'510.3
2017-Nov-22 23:00N 37°01' W 008°22'510.2
2017-Nov-22 22:30N 37°04' W 008°27'5 9.2
2017-Nov-22 22:00N 37°07' W 008°32'1 1.6
2017-Nov-22 21:31N 37°08' W 008°32'0 0.0
2017-Nov-22 21:01N 37°08' W 008°32'0 0.0
2017-Nov-22 20:31N 37°08' W 008°32'0 0.0
2017-Nov-22 20:00N 37°08' W 008°32'0 0.0
2017-Nov-22 19:31N 37°08' W 008°32'  
2017-Nov-20 00:30N 37°08' W 008°32'0 0.0
2017-Nov-20 00:00N 37°08' W 008°32'0 0.0
2017-Nov-19 23:30N 37°08' W 008°32'0 0.0
2017-Nov-19 23:00N 37°08' W 008°32'0 0.0
2017-Nov-19 22:30N 37°08' W 008°32'0 0.0
2017-Nov-19 22:00N 37°08' W 008°32'0 0.0
2017-Nov-19 21:30N 37°08' W 008°32'0 0.0
2017-Nov-19 21:00N 37°08' W 008°32'0 0.0
2017-Nov-19 20:30N 37°08' W 008°32'0 0.0
2017-Nov-19 20:00N 37°08' W 008°32'0 0.0
2017-Nov-19 19:30N 37°08' W 008°32'0 0.0
2017-Nov-19 19:00N 37°08' W 008°32'0 0.0
2017-Nov-19 18:30N 37°08' W 008°32'0 0.0
2017-Nov-19 18:00N 37°08' W 008°32'0 0.0
2017-Nov-19 17:30N 37°08' W 008°32'0 0.0
2017-Nov-19 17:00N 37°08' W 008°32'0 0.0
2017-Nov-19 16:30N 37°08' W 008°32'0 0.0
2017-Nov-19 16:00N 37°08' W 008°32'0 0.0
2017-Nov-19 15:30N 37°08' W 008°32'0 0.0
2017-Nov-19 15:00N 37°08' W 008°32'0 0.0
2017-Nov-19 14:30N 37°08' W 008°32'0 0.0
2017-Nov-19 14:00N 37°08' W 008°32'0 0.0
2017-Nov-19 13:30N 37°08' W 008°32'0 0.0
2017-Nov-19 13:00N 37°08' W 008°32'0 0.0
2017-Nov-19 12:30N 37°08' W 008°32'0 0.0
2017-Nov-19 12:00N 37°08' W 008°32'0 0.0
2017-Nov-19 11:30N 37°08' W 008°32'0 0.0
2017-Nov-19 11:00N 37°08' W 008°32'0 0.0
2017-Nov-19 10:30N 37°08' W 008°32'0 0.0
2017-Nov-19 10:00N 37°08' W 008°32'0 0.0
2017-Nov-19 09:30N 37°08' W 008°32'0 0.0
2017-Nov-19 09:00N 37°08' W 008°32'0 0.0
2017-Nov-19 08:30N 37°08' W 008°32'0 0.0
2017-Nov-19 08:00N 37°08' W 008°32'0 0.0
2017-Nov-19 07:30N 37°08' W 008°32'0 0.0
2017-Nov-19 07:00N 37°08' W 008°32'0 0.0
2017-Nov-19 06:30N 37°08' W 008°32'0 0.0
2017-Nov-19 06:00N 37°08' W 008°32'0 0.0
2017-Nov-19 05:10N 37°08' W 008°32'0 0.0
2017-Nov-19 05:00N 37°08' W 008°32'0 0.0
2017-Nov-19 04:23N 37°08' W 008°32'0 0.0
2017-Nov-19 04:00N 37°08' W 008°32'0 0.0
2017-Nov-19 03:25N 37°08' W 008°32'0 0.0
2017-Nov-19 02:54N 37°08' W 008°32'0 0.0
2017-Nov-19 02:30N 37°08' W 008°32'0 0.0
2017-Nov-19 02:00N 37°08' W 008°32'0 0.0
2017-Nov-19 01:30N 37°08' W 008°32'0 0.0
2017-Nov-19 00:58N 37°08' W 008°32'0 0.0
2017-Nov-19 00:30N 37°08' W 008°32'0 0.0
2017-Nov-19 00:00N 37°08' W 008°32'0 0.0
2017-Nov-18 23:30N 37°08' W 008°32'0 0.0
2017-Nov-18 23:00N 37°08' W 008°32'0 0.0
2017-Nov-18 22:30N 37°08' W 008°32'0 0.0
2017-Nov-18 22:00N 37°08' W 008°32'0 0.0
2017-Nov-18 21:30N 37°08' W 008°32'0 0.0
2017-Nov-18 21:00N 37°08' W 008°32'0 0.0
2017-Nov-18 20:30N 37°08' W 008°32'0 0.0
2017-Nov-18 20:00N 37°08' W 008°32'0 0.0
2017-Nov-18 19:30N 37°08' W 008°32'0 0.0
2017-Nov-18 19:00N 37°08' W 008°32'0 0.0
2017-Nov-18 18:30N 37°08' W 008°32'0 0.0
2017-Nov-18 18:00N 37°08' W 008°32'0 0.0
2017-Nov-18 17:30N 37°08' W 008°32'0 0.0
2017-Nov-18 17:00N 37°08' W 008°32'0 0.0
2017-Nov-18 16:30N 37°08' W 008°32'0 0.0
2017-Nov-18 16:00N 37°08' W 008°32'0 0.0
2017-Nov-18 15:30N 37°08' W 008°32'0 0.0
2017-Nov-18 15:00N 37°08' W 008°32'0 0.0
2017-Nov-18 14:30N 37°08' W 008°32'0 0.0
2017-Nov-18 14:00N 37°08' W 008°32'0 0.0
2017-Nov-18 13:30N 37°08' W 008°32'0 0.0
2017-Nov-18 13:00N 37°08' W 008°32'0 0.0
2017-Nov-18 12:30N 37°08' W 008°32'0 0.0
2017-Nov-18 12:00N 37°08' W 008°32'0 0.0
2017-Nov-18 11:30N 37°08' W 008°32'0 0.0
2017-Nov-18 11:00N 37°08' W 008°32'0 0.0
2017-Nov-18 10:30N 37°08' W 008°32'0 0.0
2017-Nov-18 10:00N 37°08' W 008°32'0 0.0
2017-Nov-18 09:30N 37°08' W 008°32'0 0.0
2017-Nov-18 09:00N 37°08' W 008°32'0 0.0
2017-Nov-18 08:30N 37°08' W 008°32'0 0.0
2017-Nov-18 08:00N 37°08' W 008°32'0 0.0
2017-Nov-18 07:30N 37°08' W 008°32'0 0.0
2017-Nov-18 07:00N 37°08' W 008°32'0 0.0
2017-Nov-18 06:30N 37°08' W 008°32'0 0.0
2017-Nov-18 06:00N 37°08' W 008°32'0 0.0
2017-Nov-18 05:30N 37°08' W 008°32'0 0.0
2017-Nov-18 05:00N 37°08' W 008°32'0 0.0
2017-Nov-18 04:30N 37°08' W 008°32'0 0.0
2017-Nov-18 04:00N 37°08' W 008°32'0 0.0
2017-Nov-18 03:30N 37°08' W 008°32'0 0.0
2017-Nov-18 03:00N 37°08' W 008°32'0 0.0
2017-Nov-18 02:30N 37°08' W 008°32'0 0.0
2017-Nov-18 02:00N 37°08' W 008°32'0 0.0
2017-Nov-18 01:30N 37°08' W 008°32'0 0.0
2017-Nov-18 01:00N 37°08' W 008°32'0 0.0
2017-Nov-18 00:30N 37°08' W 008°32'0 0.0
2017-Nov-18 00:00N 37°08' W 008°32'0 0.0
2017-Nov-17 23:30N 37°08' W 008°32'0 0.0
2017-Nov-17 23:00N 37°08' W 008°32'0 0.0
2017-Nov-17 22:30N 37°08' W 008°32'0 0.0
2017-Nov-17 22:00N 37°08' W 008°32'0 0.0
2017-Nov-17 21:30N 37°08' W 008°32'0 0.0
2017-Nov-17 21:00N 37°08' W 008°32'0 0.0
2017-Nov-17 20:30N 37°08' W 008°32'0 0.0
2017-Nov-17 20:00N 37°08' W 008°32'0 0.0
2017-Nov-17 19:30N 37°08' W 008°32'0 0.0
2017-Nov-17 19:00N 37°08' W 008°32'0 0.0
2017-Nov-17 18:30N 37°08' W 008°32'0 0.0
2017-Nov-17 18:00N 37°08' W 008°32'0 0.0
2017-Nov-17 17:30N 37°08' W 008°32'0 0.0
2017-Nov-17 17:00N 37°08' W 008°32'0 0.0
2017-Nov-17 16:30N 37°08' W 008°32'0 0.0
2017-Nov-17 16:00N 37°08' W 008°32'0 0.0
2017-Nov-17 15:30N 37°08' W 008°32'0 0.0
2017-Nov-17 15:00N 37°08' W 008°32'0 0.0
2017-Nov-17 14:30N 37°08' W 008°32'0 0.0
2017-Nov-17 14:00N 37°08' W 008°32'0 0.0
2017-Nov-17 13:30N 37°08' W 008°32'0 0.0
2017-Nov-17 13:00N 37°08' W 008°32'0 0.0
2017-Nov-17 12:30N 37°08' W 008°32'0 0.0
2017-Nov-17 12:00N 37°08' W 008°32'0 0.0
2017-Nov-17 11:30N 37°08' W 008°32'0 0.0
2017-Nov-17 11:00N 37°08' W 008°32'0 0.0
2017-Nov-17 10:30N 37°08' W 008°32'0 0.0
2017-Nov-17 10:00N 37°08' W 008°32'4 7.6
2017-Nov-17 09:30N 37°05' W 008°34'510.6
2017-Nov-17 09:00N 37°02' W 008°39'7 2.6
2017-Nov-17 06:18N 36°55' W 008°40'0 0.1
2017-Nov-17 05:58N 36°55' W 008°40'0 0.0
2017-Nov-17 05:30N 36°55' W 008°40'4 8.3
2017-Nov-17 05:00N 36°58' W 008°37'2 4.4
2017-Nov-17 04:30N 36°60' W 008°35'2 4.4
2017-Nov-17 04:00N 36°58' W 008°33'2 3.7
2017-Nov-17 03:28N 36°57' W 008°30'4 0.6
2017-Nov-16 20:25N 37°01' W 008°34'27 3.7
2017-Nov-16 13:08N 37°11' W 009°06'1 4.8
2017-Nov-16 12:59N 37°11' W 009°05'16 1.3
2017-Nov-16 00:49N 36°59' W 008°51'310.2
2017-Nov-16 00:29N 36°60' W 008°47'510.3
2017-Nov-15 23:59N 37°01' W 008°41'510.4
2017-Nov-15 23:30N 37°04' W 008°36'5 9.7
2017-Nov-15 23:00N 37°07' W 008°32'1 1.5
2017-Nov-15 22:30N 37°08' W 008°32'0 0.0
2017-Nov-15 22:00N 37°08' W 008°32'0 0.0
2017-Nov-15 21:30N 37°08' W 008°32'0 0.0
2017-Nov-15 21:00N 37°08' W 008°32'0 0.0
2017-Nov-15 20:30N 37°08' W 008°32'0 0.0
2017-Nov-15 20:00N 37°08' W 008°32'0 0.0
2017-Nov-15 19:30N 37°08' W 008°32'0 0.0
2017-Nov-15 19:00N 37°08' W 008°32'0 0.0
2017-Nov-15 18:30N 37°08' W 008°32'0 0.0
2017-Nov-15 18:00N 37°08' W 008°32'0 0.0
2017-Nov-15 17:30N 37°08' W 008°32'0 0.0
2017-Nov-15 17:00N 37°08' W 008°32'0 0.0
2017-Nov-15 16:30N 37°08' W 008°32'0 0.0
2017-Nov-15 16:00N 37°08' W 008°32'0 0.0
2017-Nov-15 15:30N 37°08' W 008°32'0 0.0
2017-Nov-15 15:00N 37°08' W 008°32'0 0.0
2017-Nov-15 14:30N 37°08' W 008°32'0 0.0
2017-Nov-15 14:00N 37°08' W 008°32'1 2.0
2017-Nov-15 13:30N 37°07' W 008°31'510.3
2017-Nov-15 13:00N 37°02' W 008°30'16 2.1
2017-Nov-15 05:37N 36°57' W 008°11'1 4.3
2017-Nov-15 05:28N 36°57' W 008°12'2 4.3
2017-Nov-15 05:00N 36°58' W 008°14'4 7.5
2017-Nov-15 04:29N 36°58' W 008°19'610.6
2017-Nov-15 03:58N 36°59' W 008°26'510.0
2017-Nov-15 03:28N 36°59' W 008°32'2 3.8
2017-Nov-15 03:00N 37°00' W 008°34'1 1.9
2017-Nov-15 02:30N 36°60' W 008°35'2 4.1
2017-Nov-15 02:00N 36°59' W 008°33'2 3.7
2017-Nov-15 01:29N 36°57' W 008°31'2 5.1
2017-Nov-15 01:00N 36°59' W 008°28'2 4.1
2017-Nov-15 00:30N 36°60' W 008°31'2 4.2
2017-Nov-15 00:00N 37°00' W 008°33'2 4.6
2017-Nov-14 23:30N 37°03' W 008°34'510.0
2017-Nov-14 23:00N 37°07' W 008°32'1 1.2
2017-Nov-14 22:30N 37°08' W 008°32'0 0.0
2017-Nov-14 22:00N 37°08' W 008°32'0 0.0
2017-Nov-14 21:30N 37°08' W 008°32'0 0.0
2017-Nov-14 21:00N 37°08' W 008°32'0 0.0
2017-Nov-14 20:30N 37°08' W 008°32'0 0.0
2017-Nov-14 20:00N 37°08' W 008°32'0 0.0
2017-Nov-14 19:30N 37°08' W 008°32'0 0.0
2017-Nov-14 19:00N 37°08' W 008°32'0 0.0
2017-Nov-14 18:30N 37°08' W 008°32'0 0.0
2017-Nov-14 18:00N 37°08' W 008°32'0 0.0
2017-Nov-14 17:31N 37°08' W 008°32'0 0.0
2017-Nov-14 17:00N 37°08' W 008°32'0 0.0
2017-Nov-14 16:30N 37°08' W 008°32'0 0.0
2017-Nov-14 16:00N 37°08' W 008°32'0 0.0
2017-Nov-14 15:30N 37°08' W 008°32'0 1.0
2017-Nov-14 15:00N 37°07' W 008°32'5 9.4
2017-Nov-14 14:30N 37°03' W 008°32'510.5
2017-Nov-14 14:00N 36°58' W 008°33'3 0.2
2017-Nov-14 01:34N 36°58' W 008°29'110.6
2017-Nov-14 01:31N 36°58' W 008°30'3 5.0
2017-Nov-14 01:01N 36°59' W 008°33'2 4.5
2017-Nov-14 00:31N 36°60' W 008°35'2 3.7
2017-Nov-14 00:01N 36°60' W 008°33'3 5.9
2017-Nov-13 23:31N 37°03' W 008°32'5 9.8
2017-Nov-13 23:00N 37°08' W 008°32'0 0.7
2017-Nov-13 22:31N 37°08' W 008°32'0 0.0
2017-Nov-13 22:01N 37°08' W 008°32'  
Track history (hours):
 
Tides and Currents Weather Stations Pressure Air Temp Water Temp Dewpoint Dewpoint Depression Visibility Wind Speed Wind Dir Waves Ship Positions

Centaurus

Last reported at 2017-Nov-23 02:29 UTC. Time now 2017-Nov-23 11:25 UTC.
Position N 36°55' W 008°09'.

; draft 3.5 m.

Type: Fishing. MMSI: 263410940.

Date/timePositionNaut miles runAvg speedWind from/ knotsBaromVisibWave heightAir tempDewpointWater temp
2017-Nov-23 02:29N 36°55' W 008°09'2 5.0
2017-Nov-23 02:00N 36°56' W 008°06'1 1.5
2017-Nov-23 01:30N 36°55' W 008°07'2 4.0
2017-Nov-23 01:01N 36°55' W 008°09'2 4.1
2017-Nov-23 00:31N 36°57' W 008°11'2 4.0
2017-Nov-23 00:00N 36°58' W 008°13'3 5.4
2017-Nov-22 23:31N 36°58' W 008°16'510.3
2017-Nov-22 23:00N 37°01' W 008°22'510.2
2017-Nov-22 22:30N 37°04' W 008°27'5 9.2
2017-Nov-22 22:00N 37°07' W 008°32'1 1.6
2017-Nov-22 21:31N 37°08' W 008°32'0 0.0
2017-Nov-22 21:01N 37°08' W 008°32'0 0.0
2017-Nov-22 20:31N 37°08' W 008°32'0 0.0
2017-Nov-22 20:00N 37°08' W 008°32'0 0.0
2017-Nov-22 19:31N 37°08' W 008°32'  
2017-Nov-20 00:30N 37°08' W 008°32'0 0.0
2017-Nov-20 00:00N 37°08' W 008°32'0 0.0
2017-Nov-19 23:30N 37°08' W 008°32'0 0.0
2017-Nov-19 23:00N 37°08' W 008°32'0 0.0
2017-Nov-19 22:30N 37°08' W 008°32'0 0.0
2017-Nov-19 22:00N 37°08' W 008°32'0 0.0
2017-Nov-19 21:30N 37°08' W 008°32'0 0.0
2017-Nov-19 21:00N 37°08' W 008°32'0 0.0
2017-Nov-19 20:30N 37°08' W 008°32'0 0.0
2017-Nov-19 20:00N 37°08' W 008°32'0 0.0
2017-Nov-19 19:30N 37°08' W 008°32'0 0.0
2017-Nov-19 19:00N 37°08' W 008°32'0 0.0
2017-Nov-19 18:30N 37°08' W 008°32'0 0.0
2017-Nov-19 18:00N 37°08' W 008°32'0 0.0
2017-Nov-19 17:30N 37°08' W 008°32'0 0.0
2017-Nov-19 17:00N 37°08' W 008°32'0 0.0
2017-Nov-19 16:30N 37°08' W 008°32'0 0.0
2017-Nov-19 16:00N 37°08' W 008°32'0 0.0
2017-Nov-19 15:30N 37°08' W 008°32'0 0.0
2017-Nov-19 15:00N 37°08' W 008°32'0 0.0
2017-Nov-19 14:30N 37°08' W 008°32'0 0.0
2017-Nov-19 14:00N 37°08' W 008°32'0 0.0
2017-Nov-19 13:30N 37°08' W 008°32'0 0.0
2017-Nov-19 13:00N 37°08' W 008°32'0 0.0
2017-Nov-19 12:30N 37°08' W 008°32'0 0.0
2017-Nov-19 12:00N 37°08' W 008°32'0 0.0
2017-Nov-19 11:30N 37°08' W 008°32'0 0.0
2017-Nov-19 11:00N 37°08' W 008°32'0 0.0
2017-Nov-19 10:30N 37°08' W 008°32'0 0.0
2017-Nov-19 10:00N 37°08' W 008°32'0 0.0
2017-Nov-19 09:30N 37°08' W 008°32'0 0.0
2017-Nov-19 09:00N 37°08' W 008°32'0 0.0
2017-Nov-19 08:30N 37°08' W 008°32'0 0.0
2017-Nov-19 08:00N 37°08' W 008°32'0 0.0
2017-Nov-19 07:30N 37°08' W 008°32'0 0.0
2017-Nov-19 07:00N 37°08' W 008°32'0 0.0
2017-Nov-19 06:30N 37°08' W 008°32'0 0.0
2017-Nov-19 06:00N 37°08' W 008°32'0 0.0
2017-Nov-19 05:10N 37°08' W 008°32'0 0.0
2017-Nov-19 05:00N 37°08' W 008°32'0 0.0
2017-Nov-19 04:23N 37°08' W 008°32'0 0.0
2017-Nov-19 04:00N 37°08' W 008°32'0 0.0
2017-Nov-19 03:25N 37°08' W 008°32'0 0.0
2017-Nov-19 02:54N 37°08' W 008°32'0 0.0
2017-Nov-19 02:30N 37°08' W 008°32'0 0.0
2017-Nov-19 02:00N 37°08' W 008°32'0 0.0
2017-Nov-19 01:30N 37°08' W 008°32'0 0.0
2017-Nov-19 00:58N 37°08' W 008°32'0 0.0
2017-Nov-19 00:30N 37°08' W 008°32'0 0.0
2017-Nov-19 00:00N 37°08' W 008°32'0 0.0
2017-Nov-18 23:30N 37°08' W 008°32'0 0.0
2017-Nov-18 23:00N 37°08' W 008°32'0 0.0
2017-Nov-18 22:30N 37°08' W 008°32'0 0.0
2017-Nov-18 22:00N 37°08' W 008°32'0 0.0
2017-Nov-18 21:30N 37°08' W 008°32'0 0.0
2017-Nov-18 21:00N 37°08' W 008°32'0 0.0
2017-Nov-18 20:30N 37°08' W 008°32'0 0.0
2017-Nov-18 20:00N 37°08' W 008°32'0 0.0
2017-Nov-18 19:30N 37°08' W 008°32'0 0.0
2017-Nov-18 19:00N 37°08' W 008°32'0 0.0
2017-Nov-18 18:30N 37°08' W 008°32'0 0.0
2017-Nov-18 18:00N 37°08' W 008°32'0 0.0
2017-Nov-18 17:30N 37°08' W 008°32'0 0.0
2017-Nov-18 17:00N 37°08' W 008°32'0 0.0
2017-Nov-18 16:30N 37°08' W 008°32'0 0.0
2017-Nov-18 16:00N 37°08' W 008°32'0 0.0
2017-Nov-18 15:30N 37°08' W 008°32'0 0.0
2017-Nov-18 15:00N 37°08' W 008°32'0 0.0
2017-Nov-18 14:30N 37°08' W 008°32'0 0.0
2017-Nov-18 14:00N 37°08' W 008°32'0 0.0
2017-Nov-18 13:30N 37°08' W 008°32'0 0.0
2017-Nov-18 13:00N 37°08' W 008°32'0 0.0
2017-Nov-18 12:30N 37°08' W 008°32'0 0.0
2017-Nov-18 12:00N 37°08' W 008°32'0 0.0
2017-Nov-18 11:30N 37°08' W 008°32'0 0.0
2017-Nov-18 11:00N 37°08' W 008°32'0 0.0
2017-Nov-18 10:30N 37°08' W 008°32'0 0.0
2017-Nov-18 10:00N 37°08' W 008°32'0 0.0
2017-Nov-18 09:30N 37°08' W 008°32'0 0.0
2017-Nov-18 09:00N 37°08' W 008°32'0 0.0
2017-Nov-18 08:30N 37°08' W 008°32'0 0.0
2017-Nov-18 08:00N 37°08' W 008°32'0 0.0
2017-Nov-18 07:30N 37°08' W 008°32'0 0.0
2017-Nov-18 07:00N 37°08' W 008°32'0 0.0
2017-Nov-18 06:30N 37°08' W 008°32'0 0.0
2017-Nov-18 06:00N 37°08' W 008°32'0 0.0
2017-Nov-18 05:30N 37°08' W 008°32'0 0.0
2017-Nov-18 05:00N 37°08' W 008°32'0 0.0
2017-Nov-18 04:30N 37°08' W 008°32'0 0.0
2017-Nov-18 04:00N 37°08' W 008°32'0 0.0
2017-Nov-18 03:30N 37°08' W 008°32'0 0.0
2017-Nov-18 03:00N 37°08' W 008°32'0 0.0
2017-Nov-18 02:30N 37°08' W 008°32'0 0.0
2017-Nov-18 02:00N 37°08' W 008°32'0 0.0
2017-Nov-18 01:30N 37°08' W 008°32'0 0.0
2017-Nov-18 01:00N 37°08' W 008°32'0 0.0
2017-Nov-18 00:30N 37°08' W 008°32'0 0.0
2017-Nov-18 00:00N 37°08' W 008°32'0 0.0
2017-Nov-17 23:30N 37°08' W 008°32'0 0.0
2017-Nov-17 23:00N 37°08' W 008°32'0 0.0
2017-Nov-17 22:30N 37°08' W 008°32'0 0.0
2017-Nov-17 22:00N 37°08' W 008°32'0 0.0
2017-Nov-17 21:30N 37°08' W 008°32'0 0.0
2017-Nov-17 21:00N 37°08' W 008°32'0 0.0
2017-Nov-17 20:30N 37°08' W 008°32'0 0.0
2017-Nov-17 20:00N 37°08' W 008°32'0 0.0
2017-Nov-17 19:30N 37°08' W 008°32'0 0.0
2017-Nov-17 19:00N 37°08' W 008°32'0 0.0
2017-Nov-17 18:30N 37°08' W 008°32'0 0.0
2017-Nov-17 18:00N 37°08' W 008°32'0 0.0
2017-Nov-17 17:30N 37°08' W 008°32'0 0.0
2017-Nov-17 17:00N 37°08' W 008°32'0 0.0
2017-Nov-17 16:30N 37°08' W 008°32'0 0.0
2017-Nov-17 16:00N 37°08' W 008°32'0 0.0
2017-Nov-17 15:30N 37°08' W 008°32'0 0.0
2017-Nov-17 15:00N 37°08' W 008°32'0 0.0
2017-Nov-17 14:30N 37°08' W 008°32'0 0.0
2017-Nov-17 14:00N 37°08' W 008°32'0 0.0
2017-Nov-17 13:30N 37°08' W 008°32'0 0.0
2017-Nov-17 13:00N 37°08' W 008°32'0 0.0
2017-Nov-17 12:30N 37°08' W 008°32'0 0.0
2017-Nov-17 12:00N 37°08' W 008°32'0 0.0
2017-Nov-17 11:30N 37°08' W 008°32'0 0.0
2017-Nov-17 11:00N 37°08' W 008°32'0 0.0
2017-Nov-17 10:30N 37°08' W 008°32'0 0.0
2017-Nov-17 10:00N 37°08' W 008°32'4 7.6
2017-Nov-17 09:30N 37°05' W 008°34'510.6
2017-Nov-17 09:00N 37°02' W 008°39'7 2.6
2017-Nov-17 06:18N 36°55' W 008°40'0 0.1
2017-Nov-17 05:58N 36°55' W 008°40'0 0.0
2017-Nov-17 05:30N 36°55' W 008°40'4 8.3
2017-Nov-17 05:00N 36°58' W 008°37'2 4.4
2017-Nov-17 04:30N 36°60' W 008°35'2 4.4
2017-Nov-17 04:00N 36°58' W 008°33'2 3.7
2017-Nov-17 03:28N 36°57' W 008°30'4 0.6
2017-Nov-16 20:25N 37°01' W 008°34'27 3.7
2017-Nov-16 13:08N 37°11' W 009°06'1 4.8
2017-Nov-16 12:59N 37°11' W 009°05'16 1.3
2017-Nov-16 00:49N 36°59' W 008°51'310.2
2017-Nov-16 00:29N 36°60' W 008°47'510.3
2017-Nov-15 23:59N 37°01' W 008°41'510.4
2017-Nov-15 23:30N 37°04' W 008°36'5 9.7
2017-Nov-15 23:00N 37°07' W 008°32'1 1.5
2017-Nov-15 22:30N 37°08' W 008°32'0 0.0
2017-Nov-15 22:00N 37°08' W 008°32'0 0.0
2017-Nov-15 21:30N 37°08' W 008°32'0 0.0
2017-Nov-15 21:00N 37°08' W 008°32'0 0.0
2017-Nov-15 20:30N 37°08' W 008°32'0 0.0
2017-Nov-15 20:00N 37°08' W 008°32'0 0.0
2017-Nov-15 19:30N 37°08' W 008°32'0 0.0
2017-Nov-15 19:00N 37°08' W 008°32'0 0.0
2017-Nov-15 18:30N 37°08' W 008°32'0 0.0
2017-Nov-15 18:00N 37°08' W 008°32'0 0.0
2017-Nov-15 17:30N 37°08' W 008°32'0 0.0
2017-Nov-15 17:00N 37°08' W 008°32'0 0.0
2017-Nov-15 16:30N 37°08' W 008°32'0 0.0
2017-Nov-15 16:00N 37°08' W 008°32'0 0.0
2017-Nov-15 15:30N 37°08' W 008°32'0 0.0
2017-Nov-15 15:00N 37°08' W 008°32'0 0.0
2017-Nov-15 14:30N 37°08' W 008°32'0 0.0
2017-Nov-15 14:00N 37°08' W 008°32'1 2.0
2017-Nov-15 13:30N 37°07' W 008°31'510.3
2017-Nov-15 13:00N 37°02' W 008°30'16 2.1
2017-Nov-15 05:37N 36°57' W 008°11'1 4.3
2017-Nov-15 05:28N 36°57' W 008°12'2 4.3
2017-Nov-15 05:00N 36°58' W 008°14'4 7.5
2017-Nov-15 04:29N 36°58' W 008°19'610.6
2017-Nov-15 03:58N 36°59' W 008°26'510.0
2017-Nov-15 03:28N 36°59' W 008°32'2 3.8
2017-Nov-15 03:00N 37°00' W 008°34'1 1.9
2017-Nov-15 02:30N 36°60' W 008°35'2 4.1
2017-Nov-15 02:00N 36°59' W 008°33'2 3.7
2017-Nov-15 01:29N 36°57' W 008°31'2 5.1
2017-Nov-15 01:00N 36°59' W 008°28'2 4.1
2017-Nov-15 00:30N 36°60' W 008°31'2 4.2
2017-Nov-15 00:00N 37°00' W 008°33'2 4.6
2017-Nov-14 23:30N 37°03' W 008°34'510.0
2017-Nov-14 23:00N 37°07' W 008°32'1 1.2
2017-Nov-14 22:30N 37°08' W 008°32'0 0.0
2017-Nov-14 22:00N 37°08' W 008°32'0 0.0
2017-Nov-14 21:30N 37°08' W 008°32'0 0.0
2017-Nov-14 21:00N 37°08' W 008°32'0 0.0
2017-Nov-14 20:30N 37°08' W 008°32'0 0.0
2017-Nov-14 20:00N 37°08' W 008°32'0 0.0
2017-Nov-14 19:30N 37°08' W 008°32'0 0.0
2017-Nov-14 19:00N 37°08' W 008°32'0 0.0
2017-Nov-14 18:30N 37°08' W 008°32'0 0.0
2017-Nov-14 18:00N 37°08' W 008°32'0 0.0
2017-Nov-14 17:31N 37°08' W 008°32'0 0.0
2017-Nov-14 17:00N 37°08' W 008°32'0 0.0
2017-Nov-14 16:30N 37°08' W 008°32'0 0.0
2017-Nov-14 16:00N 37°08' W 008°32'0 0.0
2017-Nov-14 15:30N 37°08' W 008°32'0 1.0
2017-Nov-14 15:00N 37°07' W 008°32'5 9.4
2017-Nov-14 14:30N 37°03' W 008°32'510.5
2017-Nov-14 14:00N 36°58' W 008°33'3 0.2
2017-Nov-14 01:34N 36°58' W 008°29'110.6
2017-Nov-14 01:31N 36°58' W 008°30'3 5.0
2017-Nov-14 01:01N 36°59' W 008°33'2 4.5
2017-Nov-14 00:31N 36°60' W 008°35'2 3.7
2017-Nov-14 00:01N 36°60' W 008°33'3 5.9
2017-Nov-13 23:31N 37°03' W 008°32'5 9.8
2017-Nov-13 23:00N 37°08' W 008°32'0 0.7
2017-Nov-13 22:31N 37°08' W 008°32'0 0.0
2017-Nov-13 22:01N 37°08' W 008°32'  

Dump ship's entire track history